Time;durP1;ratioP1;P1;durP2;ratioP2;P2;SDS_P1;SDS_P2;PMS_P1;PMS_P2;Temp;Humidity;BMP_temperature;BMP_pressure;BME280_temperature;BME280_humidity;BME280_pressure;Samples;Min_cycle;Max_cycle;Signal;HPM_P1;HPM_P2
2023/06/29 00:02:11;;;;;;;2.90;1.90;;;20.50;86.40;;;;;;4995759;28;20419;-78
2023/06/29 00:04:37;;;;;;;4.18;1.70;;;20.40;86.50;;;;;;5012341;28;20038;-79
2023/06/29 00:07:03;;;;;;;4.18;1.85;;;20.40;86.70;;;;;;4995566;28;20487;-77
2023/06/29 00:09:29;;;;;;;3.30;2.00;;;20.40;86.80;;;;;;5013029;28;20031;-78
2023/06/29 00:11:54;;;;;;;2.72;2.00;;;20.40;87.10;;;;;;4994641;28;20026;-77
2023/06/29 00:14:20;;;;;;;3.95;1.80;;;20.40;87.00;;;;;;4995152;28;20076;-76
2023/06/29 00:16:50;;;;;;;2.83;1.88;;;20.40;87.30;;;;;;4995103;28;20022;-78
2023/06/29 00:19:16;;;;;;;5.22;1.95;;;20.30;87.50;;;;;;4995545;28;20072;-78
2023/06/29 00:21:42;;;;;;;2.85;1.98;;;20.30;87.50;;;;;;5015476;28;20021;-79
2023/06/29 00:24:11;;;;;;;2.88;1.90;;;20.30;87.70;;;;;;4998493;28;20022;-78
2023/06/29 00:26:40;;;;;;;4.30;1.80;;;20.30;87.70;;;;;;5016467;28;20069;-79
2023/06/29 00:29:05;;;;;;;2.50;1.95;;;20.20;87.90;;;;;;4998891;28;20018;-80
2023/06/29 00:31:31;;;;;;;3.35;1.73;;;20.20;88.20;;;;;;4998847;28;20030;-78
2023/06/29 00:33:57;;;;;;;4.70;2.15;;;20.10;88.30;;;;;;4998297;28;20041;-79
2023/06/29 00:36:22;;;;;;;4.72;1.90;;;20.20;88.40;;;;;;5016222;28;20025;-79
2023/06/29 00:38:48;;;;;;;4.95;2.10;;;20.10;88.50;;;;;;5015453;28;20030;-79
2023/06/29 00:41:14;;;;;;;5.68;2.50;;;20.20;88.70;;;;;;5016183;28;20429;-79
2023/06/29 00:43:43;;;;;;;5.05;1.95;;;20.10;88.70;;;;;;5015769;28;20053;-81
2023/06/29 00:46:09;;;;;;;6.45;2.22;;;20.10;88.90;;;;;;5015979;28;20034;-79
2023/06/29 00:48:38;;;;;;;3.67;2.25;;;20.10;89.10;;;;;;4989772;28;20142;-78
2023/06/29 00:51:05;;;;;;;4.18;2.08;;;20.00;90.00;;;;;;4976182;28;20075;-79
2023/06/29 00:53:31;;;;;;;3.00;2.10;;;20.00;89.60;;;;;;4976270;28;20041;-79
2023/06/29 00:55:58;;;;;;;3.80;2.05;;;20.00;90.00;;;;;;4976677;28;20659;-79
2023/06/29 00:58:25;;;;;;;4.70;2.30;;;19.90;90.00;;;;;;4977154;28;20035;-79
2023/06/29 01:00:50;;;;;;;3.08;2.00;;;19.90;90.20;;;;;;4976704;28;20481;-79
2023/06/29 01:03:16;;;;;;;3.42;2.22;;;19.90;90.30;;;;;;4977079;28;20038;-79
2023/06/29 01:05:45;;;;;;;4.00;2.33;;;19.80;90.40;;;;;;4976347;28;20043;-79
2023/06/29 01:08:18;;;;;;;3.92;2.50;;;19.80;90.40;;;;;;4975752;28;20042;-79
2023/06/29 01:10:45;;;;;;;3.25;1.90;;;19.80;90.50;;;;;;4976487;28;20030;-80
2023/06/29 01:13:13;;;;;;;6.07;2.15;;;19.80;90.60;;;;;;4975616;28;20031;-77
2023/06/29 01:15:40;;;;;;;6.03;2.20;;;19.80;90.70;;;;;;4975273;28;20041;-80
2023/06/29 01:18:07;;;;;;;3.17;2.33;;;19.70;90.80;;;;;;4974778;28;20031;-77
2023/06/29 01:20:33;;;;;;;4.05;2.08;;;19.70;90.80;;;;;;4974501;28;20026;-78
2023/06/29 01:23:14;;;;;;;3.20;2.15;;;19.70;90.90;;;;;;4974565;28;20038;-78
2023/06/29 01:25:41;;;;;;;3.75;1.92;;;19.70;90.90;;;;;;4976159;28;20472;-79
2023/06/29 01:28:08;;;;;;;3.63;2.10;;;19.60;91.00;;;;;;4974959;28;20030;-78
2023/06/29 01:30:39;;;;;;;3.00;2.28;;;19.60;91.10;;;;;;4975917;28;20059;-77
2023/06/29 01:33:05;;;;;;;;;;;19.60;91.20;;;;;;4975698;28;20469;-78
2023/06/29 01:35:31;;;;;;;4.97;2.58;;;19.60;91.20;;;;;;4974457;28;19918;-78
2023/06/29 01:38:04;;;;;;;2.60;2.10;;;19.50;91.30;;;;;;4975228;28;20473;-78
2023/06/29 01:40:32;;;;;;;5.47;2.55;;;19.60;91.30;;;;;;4974733;28;20048;-77
2023/06/29 01:42:58;;;;;;;3.83;1.77;;;19.50;91.30;;;;;;4974172;28;20034;-79
2023/06/29 01:45:25;;;;;;;4.95;2.17;;;19.50;91.40;;;;;;4974965;28;20088;-79
2023/06/29 01:47:51;;;;;;;4.93;1.92;;;19.50;91.50;;;;;;4975313;28;20050;-80
2023/06/29 01:50:17;;;;;;;3.78;1.92;;;19.50;91.40;;;;;;5014394;28;20065;-79
2023/06/29 01:52:44;;;;;;;4.65;2.30;;;19.50;91.50;;;;;;4997451;28;20050;-81
2023/06/29 01:55:11;;;;;;;3.17;2.20;;;19.40;91.90;;;;;;4997466;28;20030;-79
2023/06/29 01:57:37;;;;;;;3.30;1.98;;;19.30;92.10;;;;;;4997424;28;20099;-79
2023/06/29 02:00:03;;;;;;;3.63;2.28;;;19.20;92.20;;;;;;4996875;28;20613;-78
2023/06/29 02:02:30;;;;;;;3.25;2.13;;;19.20;92.30;;;;;;4997026;28;20026;-77
2023/06/29 02:04:56;;;;;;;2.47;1.98;;;19.10;92.50;;;;;;5014008;28;20046;-77
2023/06/29 02:07:21;;;;;;;4.40;2.17;;;19.10;92.60;;;;;;4996605;28;20037;-77
2023/06/29 02:09:47;;;;;;;5.57;2.22;;;19.10;92.70;;;;;;4995879;28;20026;-78
2023/06/29 02:12:12;;;;;;;5.75;2.47;;;19.10;92.50;;;;;;4997047;28;20036;-78
2023/06/29 02:14:38;;;;;;;3.22;2.00;;;19.20;92.50;;;;;;5010526;28;20034;-78
2023/06/29 02:17:04;;;;;;;3.50;2.30;;;19.20;92.40;;;;;;5013053;28;20033;-79
2023/06/29 02:19:30;;;;;;;2.95;2.38;;;19.20;92.40;;;;;;5013413;28;20450;-79
2023/06/29 02:21:55;;;;;;;7.03;2.40;;;19.20;92.50;;;;;;5012660;28;20022;-78
2023/06/29 02:24:21;;;;;;;6.20;2.30;;;19.20;92.60;;;;;;5013510;28;20046;-79
2023/06/29 02:26:46;;;;;;;4.30;2.55;;;19.20;92.80;;;;;;5012690;28;20122;-79
2023/06/29 02:29:12;;;;;;;5.75;2.72;;;19.10;92.70;;;;;;5013087;28;20116;-79
2023/06/29 02:31:38;;;;;;;4.18;2.22;;;19.10;92.80;;;;;;5014393;28;20029;-79
2023/06/29 02:34:03;;;;;;;6.28;2.42;;;19.10;92.80;;;;;;5012168;28;20033;-79
2023/06/29 02:36:30;;;;;;;3.92;2.40;;;19.10;92.80;;;;;;5012912;28;20030;-79
2023/06/29 02:38:55;;;;;;;5.38;2.15;;;19.10;92.80;;;;;;5012527;28;20033;-79
2023/06/29 02:41:21;;;;;;;3.92;2.03;;;19.10;93.00;;;;;;5012896;28;20029;-80
2023/06/29 02:43:46;;;;;;;7.45;2.63;;;19.10;92.90;;;;;;5013732;28;20022;-81
2023/06/29 02:46:12;;;;;;;5.90;2.97;;;19.10;92.80;;;;;;5012907;28;20489;-78
2023/06/29 02:48:38;;;;;;;3.50;2.25;;;19.10;92.90;;;;;;5013344;28;20446;-78
2023/06/29 02:51:03;;;;;;;6.57;2.40;;;19.10;93.10;;;;;;5012882;28;20065;-79
2023/06/29 02:53:29;;;;;;;4.65;2.50;;;19.10;93.10;;;;;;5012519;28;20048;-78
2023/06/29 02:55:54;;;;;;;4.75;2.30;;;19.10;93.20;;;;;;5012141;28;20062;-78
2023/06/29 02:58:20;;;;;;;3.92;2.15;;;19.00;93.30;;;;;;5012368;28;20064;-79
2023/06/29 03:00:45;;;;;;;4.25;2.42;;;19.00;93.50;;;;;;5012575;28;20029;-80
2023/06/29 03:03:11;;;;;;;4.50;2.80;;;18.90;93.90;;;;;;5012533;28;20025;-79
2023/06/29 03:05:36;;;;;;;3.15;2.10;;;18.80;94.40;;;;;;5014111;28;20077;-79
2023/06/29 03:08:03;;;;;;;5.15;3.03;;;18.70;94.80;;;;;;5012317;28;20096;-79
2023/06/29 03:10:29;;;;;;;4.38;2.53;;;18.70;94.90;;;;;;5012670;28;20057;-79
2023/06/29 03:12:54;;;;;;;5.47;2.90;;;18.80;94.90;;;;;;5012162;28;20022;-79
2023/06/29 03:15:20;;;;;;;4.25;2.72;;;18.80;94.90;;;;;;5012931;28;20617;-79
2023/06/29 03:17:45;;;;;;;5.25;2.63;;;18.80;95.10;;;;;;5013642;28;20029;-81
2023/06/29 03:20:13;;;;;;;3.33;2.97;;;18.80;95.10;;;;;;5012425;28;20026;-78
2023/06/29 03:22:39;;;;;;;5.38;2.83;;;18.80;95.10;;;;;;5013730;28;20100;-79
2023/06/29 03:25:06;;;;;;;2.70;2.33;;;18.80;95.10;;;;;;5013055;28;20099;-79
2023/06/29 03:27:32;;;;;;;4.75;2.70;;;18.70;95.30;;;;;;5012632;28;20049;-79
2023/06/29 03:29:58;;;;;;;5.03;2.80;;;18.70;95.30;;;;;;5012913;28;20464;-79
2023/06/29 03:32:23;;;;;;;7.57;3.28;;;18.70;95.40;;;;;;5012356;28;20048;-79
2023/06/29 03:34:49;;;;;;;5.53;3.00;;;18.60;95.50;;;;;;5011713;28;20068;-81
2023/06/29 03:37:14;;;;;;;4.45;2.78;;;18.60;95.70;;;;;;5012051;28;20026;-79
2023/06/29 03:39:40;;;;;;;4.95;2.80;;;18.60;95.70;;;;;;5013354;28;20030;-78
2023/06/29 03:42:06;;;;;;;5.85;2.70;;;18.60;95.70;;;;;;5011963;28;20036;-79
2023/06/29 03:44:32;;;;;;;5.47;2.80;;;18.60;95.80;;;;;;5012188;28;20030;-79
2023/06/29 03:46:57;;;;;;;3.22;2.50;;;18.60;96.00;;;;;;5013018;28;20034;-79
2023/06/29 03:49:23;;;;;;;5.05;2.55;;;18.60;96.10;;;;;;5012107;28;20046;-79
2023/06/29 03:51:48;;;;;;;5.95;2.95;;;18.60;96.20;;;;;;5013106;28;20030;-80
2023/06/29 03:54:14;;;;;;;5.30;2.65;;;18.60;96.20;;;;;;5012226;28;20022;-80
2023/06/29 03:56:39;;;;;;;3.33;2.45;;;18.60;96.30;;;;;;5016328;28;20030;-80
2023/06/29 03:59:05;;;;;;;3.90;2.75;;;18.60;96.40;;;;;;5016574;28;20049;-79
2023/06/29 04:01:30;;;;;;;5.82;2.58;;;18.60;96.40;;;;;;5015683;28;20034;-78
2023/06/29 04:03:56;;;;;;;4.03;2.70;;;18.60;96.40;;;;;;5015011;28;20029;-78
2023/06/29 04:06:22;;;;;;;4.50;2.67;;;18.70;96.40;;;;;;5015298;28;20042;-78
2023/06/29 04:08:47;;;;;;;6.88;2.92;;;18.60;96.50;;;;;;5015651;28;20029;-78
2023/06/29 04:11:13;;;;;;;4.07;2.53;;;18.60;96.60;;;;;;5016309;28;20422;-78
2023/06/29 04:13:39;;;;;;;2.80;2.40;;;18.60;96.70;;;;;;5016605;28;20052;-78
2023/06/29 04:16:04;;;;;;;4.15;2.70;;;18.50;96.80;;;;;;5016558;28;20050;-79
2023/06/29 04:18:30;;;;;;;6.28;2.47;;;18.40;97.20;;;;;;5015288;28;20379;-79
2023/06/29 04:20:55;;;;;;;4.20;2.65;;;18.50;97.30;;;;;;5014536;28;20469;-78
2023/06/29 04:23:21;;;;;;;3.78;2.42;;;18.40;97.30;;;;;;5016027;28;20029;-78
2023/06/29 04:25:47;;;;;;;4.38;2.78;;;18.40;97.40;;;;;;5015059;28;20092;-77
2023/06/29 04:28:12;;;;;;;4.85;2.97;;;18.30;97.50;;;;;;5014926;28;20491;-78
2023/06/29 04:30:44;;;;;;;3.92;2.70;;;18.30;97.70;;;;;;5015545;28;20061;-78
2023/06/29 04:33:10;;;;;;;6.00;2.70;;;18.30;97.90;;;;;;5014533;28;20117;-78
2023/06/29 04:35:42;;;;;;;4.68;2.58;;;18.30;98.00;;;;;;5015037;28;20041;-77
2023/06/29 04:38:09;;;;;;;;;;;18.40;97.90;;;;;;5016128;28;20030;-77
2023/06/29 04:40:35;;;;;;;6.18;2.50;;;18.40;97.90;;;;;;5014853;28;19906;-78
2023/06/29 04:43:02;;;;;;;5.35;2.55;;;18.50;97.50;;;;;;5015633;28;20041;-78
2023/06/29 04:45:28;;;;;;;7.53;2.50;;;18.60;97.40;;;;;;5014827;28;20034;-78
2023/06/29 04:47:56;;;;;;;5.28;2.78;;;18.60;97.10;;;;;;5014252;28;20036;-79
2023/06/29 04:50:25;;;;;;;4.13;2.38;;;18.70;97.20;;;;;;5014742;28;20455;-77
2023/06/29 04:52:58;;;;;;;3.95;2.38;;;18.60;97.20;;;;;;5015577;28;20022;-80
2023/06/29 04:55:24;;;;;;;5.18;2.72;;;18.70;97.00;;;;;;5014695;28;20359;-77
2023/06/29 04:57:50;;;;;;;3.95;2.63;;;18.80;97.00;;;;;;5014384;28;20513;-77
2023/06/29 05:00:16;;;;;;;5.32;2.50;;;18.90;97.10;;;;;;5014163;28;20022;-78
2023/06/29 05:02:42;;;;;;;4.65;2.60;;;18.90;97.20;;;;;;5014595;28;20471;-79
2023/06/29 05:05:08;;;;;;;4.13;2.42;;;18.90;97.20;;;;;;5015360;28;20042;-78
2023/06/29 05:07:34;;;;;;;6.30;2.60;;;18.90;97.20;;;;;;5013431;28;20120;-79
2023/06/29 05:10:00;;;;;;;3.22;2.33;;;19.00;97.20;;;;;;5013995;28;20034;-79
2023/06/29 05:12:26;;;;;;;3.15;2.13;;;19.00;97.10;;;;;;5014108;28;20022;-79
2023/06/29 05:14:52;;;;;;;2.88;2.28;;;19.10;96.80;;;;;;5014187;28;20064;-80
2023/06/29 05:17:18;;;;;;;4.15;2.50;;;19.10;96.80;;;;;;5015473;28;20379;-78
2023/06/29 05:19:44;;;;;;;4.53;2.30;;;19.20;96.70;;;;;;5015530;28;20029;-78
2023/06/29 05:22:10;;;;;;;5.13;2.45;;;19.30;96.50;;;;;;5014808;28;20057;-78
2023/06/29 05:24:37;;;;;;;3.17;2.17;;;19.30;96.20;;;;;;5015225;28;20037;-79
2023/06/29 05:27:03;;;;;;;4.78;2.30;;;19.30;96.20;;;;;;5013880;28;20104;-79
2023/06/29 05:29:28;;;;;;;3.72;2.58;;;19.40;96.20;;;;;;5014430;28;20030;-79
2023/06/29 05:31:54;;;;;;;2.53;2.00;;;19.50;96.30;;;;;;5014795;28;20474;-79
2023/06/29 05:34:20;;;;;;;3.83;1.98;;;19.50;96.00;;;;;;5013845;28;20029;-79
2023/06/29 05:36:45;;;;;;;2.38;1.90;;;19.70;95.60;;;;;;5014074;28;20061;-79
2023/06/29 05:39:11;;;;;;;5.57;2.30;;;19.70;95.50;;;;;;5013518;28;20061;-78
2023/06/29 05:41:38;;;;;;;2.60;1.88;;;19.80;95.40;;;;;;5013874;28;20026;-79
2023/06/29 05:44:04;;;;;;;3.67;1.70;;;19.90;95.10;;;;;;5013317;28;20426;-79
2023/06/29 05:46:30;;;;;;;2.40;2.00;;;20.00;95.00;;;;;;5012275;28;20071;-80
2023/06/29 05:48:55;;;;;;;2.78;1.98;;;20.00;95.00;;;;;;4997925;28;20058;-81
2023/06/29 05:51:21;;;;;;;4.07;2.05;;;20.10;94.70;;;;;;5000031;28;20062;-80
2023/06/29 05:53:46;;;;;;;5.60;2.03;;;20.10;94.60;;;;;;5003986;28;20109;-82
2023/06/29 05:56:12;;;;;;;7.43;2.33;;;20.10;94.50;;;;;;5005435;28;20026;-82
2023/06/29 05:58:37;;;;;;;4.55;2.20;;;20.20;94.60;;;;;;5004851;28;20033;-83
2023/06/29 06:01:04;;;;;;;7.88;2.20;;;20.20;94.60;;;;;;4997746;28;20031;-84
2023/06/29 06:03:29;;;;;;;3.58;2.03;;;20.30;94.50;;;;;;5009629;28;20022;-82
2023/06/29 06:05:55;;;;;;;3.42;2.40;;;20.30;94.30;;;;;;4993991;28;20092;-82
2023/06/29 06:08:20;;;;;;;5.25;2.17;;;20.40;94.10;;;;;;5002318;28;20021;-80
2023/06/29 06:10:46;;;;;;;4.45;1.77;;;20.50;93.80;;;;;;5000456;28;20109;-82
2023/06/29 06:13:12;;;;;;;3.45;1.92;;;20.60;93.70;;;;;;5009979;28;20101;-83
2023/06/29 06:15:39;;;;;;;3.15;1.83;;;20.70;93.40;;;;;;5010084;28;20027;-83
2023/06/29 06:18:05;;;;;;;5.57;2.10;;;20.90;93.00;;;;;;4999510;28;20018;-83
2023/06/29 06:20:30;;;;;;;3.95;1.83;;;21.00;92.90;;;;;;5004225;28;20097;-81
2023/06/29 06:22:56;;;;;;;7.57;2.40;;;21.10;92.80;;;;;;5007203;28;20022;-82
2023/06/29 06:25:21;;;;;;;8.30;2.13;;;21.20;92.90;;;;;;4997631;28;20391;-81
2023/06/29 06:27:47;;;;;;;3.22;1.85;;;21.30;92.60;;;;;;4994629;28;20455;-81
2023/06/29 06:30:13;;;;;;;4.00;1.88;;;21.30;92.40;;;;;;5005314;28;20022;-82
2023/06/29 06:32:41;;;;;;;6.97;2.00;;;21.40;92.40;;;;;;5004537;28;20488;-82
2023/06/29 06:35:09;;;;;;;4.10;1.88;;;21.50;92.40;;;;;;4997215;28;20034;-83
2023/06/29 06:37:38;;;;;;;3.28;2.00;;;21.50;92.20;;;;;;5010131;28;20018;-81
2023/06/29 06:40:07;;;;;;;3.67;1.88;;;21.50;92.10;;;;;;4999352;28;20021;-82
2023/06/29 06:42:36;;;;;;;6.22;1.83;;;21.60;92.00;;;;;;5010013;28;20022;-80
2023/06/29 06:45:06;;;;;;;5.10;1.80;;;21.60;92.10;;;;;;4997303;28;20052;-82
2023/06/29 06:47:32;;;;;;;3.72;1.67;;;21.70;92.00;;;;;;4996649;28;20030;-79
2023/06/29 06:49:59;;;;;;;3.67;2.00;;;21.70;91.90;;;;;;5005764;28;20068;-81
2023/06/29 06:52:25;;;;;;;2.58;1.80;;;21.80;92.00;;;;;;5002174;28;20025;-78
2023/06/29 06:54:51;;;;;;;4.07;1.77;;;21.80;91.80;;;;;;4998460;28;20122;-79
2023/06/29 06:57:17;;;;;;;6.65;1.70;;;21.80;91.70;;;;;;5008172;28;20030;-83
2023/06/29 06:59:43;;;;;;;3.85;1.88;;;21.90;91.50;;;;;;4996353;28;20072;-78
2023/06/29 07:02:09;;;;;;;3.22;2.05;;;22.00;91.40;;;;;;5004561;28;20544;-79
2023/06/29 07:04:35;;;;;;;5.22;2.00;;;22.10;91.60;;;;;;5003321;28;20128;-79
2023/06/29 07:07:00;;;;;;;5.45;2.05;;;22.10;91.50;;;;;;4997282;28;20046;-78
2023/06/29 07:09:26;;;;;;;4.53;2.10;;;22.10;91.40;;;;;;5008158;28;20464;-79
2023/06/29 07:11:51;;;;;;;3.50;1.95;;;22.20;91.40;;;;;;4988722;28;20073;-80
2023/06/29 07:14:17;;;;;;;3.92;1.95;;;22.30;91.10;;;;;;4990101;28;20472;-80
2023/06/29 07:16:43;;;;;;;4.90;2.15;;;22.40;91.00;;;;;;4995627;28;20026;-79
2023/06/29 07:19:12;;;;;;;3.80;2.00;;;22.50;90.90;;;;;;4993407;28;20025;-82
2023/06/29 07:21:38;;;;;;;2.60;1.83;;;22.60;91.00;;;;;;5006297;28;20022;-81
2023/06/29 07:24:04;;;;;;;4.00;2.00;;;22.70;90.70;;;;;;5007035;28;20518;-81
2023/06/29 07:26:29;;;;;;;4.25;1.70;;;22.80;90.30;;;;;;5005835;28;20476;-79
2023/06/29 07:28:55;;;;;;;3.20;1.60;;;22.90;90.10;;;;;;5004937;28;20109;-79
2023/06/29 07:31:25;;;;;;;5.82;1.70;;;22.90;89.70;;;;;;5003683;28;20030;-82
2023/06/29 07:33:53;;;;;;;5.43;1.88;;;23.00;89.20;;;;;;5011880;28;20482;-81
2023/06/29 07:36:19;;;;;;;4.70;2.00;;;23.10;88.60;;;;;;5011235;28;20040;-81
2023/06/29 07:38:45;;;;;;;4.60;1.85;;;23.10;88.70;;;;;;5009574;28;20037;-80
2023/06/29 07:41:11;;;;;;;6.45;2.03;;;23.10;88.20;;;;;;5006658;28;20158;-81
2023/06/29 07:43:36;;;;;;;5.85;1.77;;;23.20;88.30;;;;;;5000388;28;20030;-81
2023/06/29 07:46:02;;;;;;;3.17;1.70;;;23.20;88.20;;;;;;4999071;28;20239;-81
2023/06/29 07:48:28;;;;;;;4.25;2.25;;;23.20;87.80;;;;;;5001770;28;20062;-80
2023/06/29 07:50:54;;;;;;;5.35;1.98;;;23.20;87.90;;;;;;5004578;28;20034;-82
2023/06/29 07:53:20;;;;;;;6.20;1.95;;;23.20;87.90;;;;;;5005819;28;20103;-80
2023/06/29 07:55:46;;;;;;;5.65;1.90;;;23.30;88.10;;;;;;5020592;28;20021;-80
2023/06/29 07:58:12;;;;;;;4.03;2.08;;;23.30;88.00;;;;;;5001797;28;20029;-80
2023/06/29 08:00:37;;;;;;;3.58;1.63;;;23.30;87.60;;;;;;5002719;28;20538;-80
2023/06/29 08:03:04;;;;;;;3.50;1.40;;;23.40;87.80;;;;;;5013905;28;20430;-81
2023/06/29 08:05:29;;;;;;;5.10;1.90;;;23.50;87.60;;;;;;5002500;28;20103;-81
2023/06/29 08:07:55;;;;;;;5.25;2.00;;;23.50;86.90;;;;;;5020088;28;20062;-83
2023/06/29 08:10:21;;;;;;;3.88;1.60;;;23.50;86.70;;;;;;5019834;28;20105;-81
2023/06/29 08:12:47;;;;;;;4.13;1.98;;;23.60;86.80;;;;;;5003369;28;20080;-83
2023/06/29 08:15:12;;;;;;;2.38;1.77;;;23.70;86.00;;;;;;5005683;28;20036;-80
2023/06/29 08:17:38;;;;;;;4.10;2.10;;;23.80;85.70;;;;;;5019597;28;20429;-78
2023/06/29 08:20:06;;;;;;;5.22;1.80;;;23.80;86.90;;;;;;5001040;28;20459;-79
2023/06/29 08:22:31;;;;;;;2.92;1.70;;;23.80;85.40;;;;;;5020022;28;20033;-80
2023/06/29 08:24:57;;;;;;;6.00;1.85;;;23.80;85.00;;;;;;5001463;28;20121;-80
2023/06/29 08:27:22;;;;;;;4.53;1.80;;;23.90;87.30;;;;;;5027975;28;20451;-79
2023/06/29 08:29:49;;;;;;;5.43;1.90;;;23.80;87.60;;;;;;5012472;28;20022;-80
2023/06/29 08:32:15;;;;;;;4.40;2.17;;;23.80;86.30;;;;;;5011825;28;20053;-81
2023/06/29 08:34:40;;;;;;;3.00;1.63;;;23.90;85.10;;;;;;5013066;28;20357;-80
2023/06/29 08:37:06;;;;;;;4.13;1.80;;;24.00;86.30;;;;;;5010892;28;20101;-80
2023/06/29 08:39:31;;;;;;;6.28;1.95;;;24.10;86.50;;;;;;5003504;28;20025;-79
2023/06/29 08:41:57;;;;;;;5.18;1.80;;;24.20;87.30;;;;;;5002285;28;20022;-81
2023/06/29 08:44:23;;;;;;;9.55;1.77;;;24.30;87.50;;;;;;5002362;28;20345;-83
2023/06/29 08:46:48;;;;;;;8.82;2.00;;;24.40;86.90;;;;;;5003302;28;20037;-82
2023/06/29 08:49:15;;;;;;;6.65;2.10;;;24.50;85.50;;;;;;5022515;28;20488;-81
2023/06/29 08:51:46;;;;;;;3.40;1.90;;;24.60;85.30;;;;;;5002535;28;20068;-83
2023/06/29 08:54:12;;;;;;;4.00;2.25;;;24.70;84.50;;;;;;5002182;28;20041;-83
2023/06/29 08:56:39;;;;;;;4.43;1.90;;;24.70;84.50;;;;;;5009317;28;20034;-82
2023/06/29 08:59:05;;;;;;;7.85;2.03;;;24.90;83.10;;;;;;5008372;28;20088;-80
2023/06/29 09:01:32;;;;;;;16.40;2.90;;;24.90;83.00;;;;;;5011185;28;20559;-81
2023/06/29 09:03:58;;;;;;;13.32;2.90;;;24.90;83.30;;;;;;5012079;28;20112;-84
2023/06/29 09:06:24;;;;;;;3.67;1.92;;;25.00;83.80;;;;;;5030033;28;20061;-81
2023/06/29 09:08:49;;;;;;;2.05;1.77;;;25.00;83.90;;;;;;5013089;28;20056;-80
2023/06/29 09:11:15;;;;;;;5.13;1.85;;;25.10;82.90;;;;;;5004532;28;20116;-81
2023/06/29 09:13:41;;;;;;;9.07;1.85;;;25.10;83.90;;;;;;5000913;28;20029;-82
2023/06/29 09:16:09;;;;;;;4.32;1.77;;;25.10;83.10;;;;;;5028423;28;20109;-79
2023/06/29 09:18:34;;;;;;;4.22;2.15;;;25.10;83.80;;;;;;5011724;28;20045;-81
2023/06/29 09:21:00;;;;;;;3.00;1.77;;;25.10;83.40;;;;;;5008468;28;20030;-83
2023/06/29 09:23:26;;;;;;;5.60;1.83;;;25.00;83.20;;;;;;5009223;28;20053;-80
2023/06/29 09:25:55;;;;;;;6.80;2.13;;;25.00;84.00;;;;;;5018825;28;20045;-82
2023/06/29 09:28:20;;;;;;;5.25;1.90;;;25.00;83.70;;;;;;5001514;28;20099;-79
2023/06/29 09:30:46;;;;;;;5.35;2.33;;;25.10;83.40;;;;;;5002181;28;20046;-80
2023/06/29 09:33:13;;;;;;;6.13;2.10;;;25.20;83.60;;;;;;5021952;28;20021;-79
2023/06/29 09:35:51;;;;;;;7.13;2.30;;;25.20;83.40;;;;;;5001232;28;20038;-79
2023/06/29 09:38:17;;;;;;;4.30;1.90;;;25.20;83.40;;;;;;5000488;28;20521;-81
2023/06/29 09:40:53;;;;;;;7.53;2.00;;;25.20;84.10;;;;;;5018885;28;20030;-80
2023/06/29 09:43:27;;;;;;;3.75;1.83;;;25.20;84.50;;;;;;5016568;28;20029;-79
2023/06/29 09:46:07;;;;;;;4.40;1.88;;;25.20;84.20;;;;;;5001220;28;20107;-80
2023/06/29 09:48:32;;;;;;;4.72;2.15;;;25.20;84.30;;;;;;5003476;28;20076;-78
2023/06/29 09:50:58;;;;;;;3.53;1.83;;;25.20;83.60;;;;;;5008411;28;20458;-83
2023/06/29 09:53:30;;;;;;;3.35;1.80;;;25.30;83.50;;;;;;5012014;28;20030;-82
2023/06/29 09:55:58;;;;;;;4.25;1.60;;;25.30;83.40;;;;;;5014833;28;20029;-81
2023/06/29 09:58:24;;;;;;;4.75;1.90;;;25.40;83.10;;;;;;5024252;28;20021;-82
2023/06/29 10:00:50;;;;;;;5.68;1.95;;;25.40;83.10;;;;;;4999492;28;20049;-84
2023/06/29 10:03:16;;;;;;;3.88;1.73;;;25.40;83.00;;;;;;5030774;28;20521;-81
2023/06/29 10:05:41;;;;;;;5.60;1.95;;;25.40;82.60;;;;;;5034322;28;20043;-82
2023/06/29 10:08:09;;;;;;;4.70;1.90;;;25.40;82.10;;;;;;5023844;28;20025;-81
2023/06/29 10:10:36;;;;;;;3.10;1.70;;;25.50;81.80;;;;;;5008418;28;20033;-82
2023/06/29 10:13:04;;;;;;;3.92;1.63;;;25.60;81.70;;;;;;4999528;28;20032;-85
2023/06/29 10:15:33;;;;;;;2.15;1.65;;;25.70;81.20;;;;;;5002668;28;20025;-84
2023/06/29 10:18:27;;;;;;;4.10;1.60;;;25.80;80.90;;;;;;5003504;28;20045;-84
2023/06/29 10:20:53;;;;;;;6.63;1.90;;;25.80;80.60;;;;;;5006026;28;20128;-84
2023/06/29 10:23:20;;;;;;;4.57;1.83;;;25.80;79.40;;;;;;4997092;28;20108;-80
2023/06/29 10:25:48;;;;;;;2.05;1.67;;;25.90;79.50;;;;;;5006757;28;20066;-80
2023/06/29 10:28:15;;;;;;;3.45;1.67;;;26.00;79.90;;;;;;5013703;28;20100;-80
2023/06/29 10:30:46;;;;;;;3.72;1.70;;;26.10;79.50;;;;;;5012646;28;20025;-80
2023/06/29 10:33:12;;;;;;;4.30;1.50;;;26.10;80.10;;;;;;5017329;28;20087;-81
2023/06/29 10:35:40;;;;;;;3.85;1.83;;;26.10;80.00;;;;;;5030841;28;20041;-80
2023/06/29 10:38:12;;;;;;;3.47;1.60;;;26.10;80.10;;;;;;4998846;28;20029;-78
2023/06/29 10:40:48;;;;;;;4.28;1.88;;;26.10;78.10;;;;;;5007036;28;20056;-85
2023/06/29 10:43:14;;;;;;;3.78;1.67;;;26.00;77.80;;;;;;5004604;28;20024;-84
2023/06/29 10:45:40;;;;;;;2.78;1.63;;;26.00;78.30;;;;;;5011924;28;20121;-83
2023/06/29 10:48:13;;;;;;;1.85;1.42;;;26.00;78.00;;;;;;4996015;28;20137;-83
2023/06/29 10:50:41;;;;;;;3.05;1.90;;;26.00;77.90;;;;;;5029619;28;20111;-84
2023/06/29 10:53:15;;;;;;;4.65;2.00;;;26.00;78.50;;;;;;4996827;28;20052;-77
2023/06/29 10:55:52;;;;;;;3.20;1.70;;;26.00;78.10;;;;;;4982721;28;20033;-78
2023/06/29 10:58:22;;;;;;;3.65;1.60;;;25.80;77.40;;;;;;5001449;28;20018;-79
2023/06/29 11:00:49;;;;;;;2.80;1.63;;;25.70;77.90;;;;;;4995001;28;20092;-80
2023/06/29 11:03:15;;;;;;;3.28;1.65;;;25.60;78.20;;;;;;4996234;28;20026;-79
2023/06/29 11:05:41;;;;;;;5.85;1.83;;;25.60;78.20;;;;;;5009380;28;20025;-82
2023/06/29 11:08:07;;;;;;;2.50;1.80;;;25.50;78.40;;;;;;5009735;28;20026;-77
2023/06/29 11:10:34;;;;;;;4.90;1.70;;;25.40;77.80;;;;;;5015339;28;20053;-84
2023/06/29 11:12:59;;;;;;;4.43;2.20;;;25.40;78.10;;;;;;5002647;28;20113;-82
2023/06/29 11:15:27;;;;;;;2.83;1.77;;;25.30;78.10;;;;;;5026012;28;20446;-82
2023/06/29 11:17:53;;;;;;;7.20;2.03;;;25.30;77.90;;;;;;5015504;28;20113;-83
2023/06/29 11:20:20;;;;;;;3.72;1.60;;;25.30;77.80;;;;;;5003690;28;20127;-81
2023/06/29 11:22:48;;;;;;;3.38;1.80;;;25.40;77.70;;;;;;5026821;28;20025;-80
2023/06/29 11:25:14;;;;;;;2.58;1.63;;;25.40;77.70;;;;;;5005799;28;20085;-80
2023/06/29 11:27:41;;;;;;;4.57;1.60;;;25.50;77.80;;;;;;4982754;28;20064;-78
2023/06/29 11:30:09;;;;;;;5.47;1.75;;;25.50;77.40;;;;;;5019529;28;20475;-79
2023/06/29 11:32:38;;;;;;;5.93;1.88;;;25.60;77.10;;;;;;4998927;28;20501;-82
2023/06/29 11:35:12;;;;;;;2.58;1.75;;;25.80;78.50;;;;;;4999177;28;20037;-79
2023/06/29 11:37:39;;;;;;;4.95;1.65;;;25.80;78.60;;;;;;4995781;28;20117;-83
2023/06/29 11:40:15;;;;;;;3.20;1.48;;;25.90;79.10;;;;;;4994429;28;20471;-81
2023/06/29 11:42:42;;;;;;;3.35;1.58;;;25.90;79.50;;;;;;4999586;28;20033;-79
2023/06/29 11:45:08;;;;;;;2.42;1.70;;;25.90;79.10;;;;;;5005609;28;20065;-79
2023/06/29 11:47:35;;;;;;;3.60;1.77;;;25.90;79.00;;;;;;4994875;28;20026;-78
2023/06/29 11:50:02;;;;;;;3.03;1.95;;;26.00;78.30;;;;;;4998391;28;20082;-79
2023/06/29 11:52:30;;;;;;;3.35;1.67;;;26.00;76.80;;;;;;5009050;28;20029;-81
2023/06/29 11:54:58;;;;;;;3.30;1.60;;;26.00;77.20;;;;;;4997881;28;20360;-82
2023/06/29 11:57:24;;;;;;;3.33;1.65;;;26.00;75.80;;;;;;5026423;28;20093;-80
2023/06/29 11:59:50;;;;;;;4.15;1.98;;;26.10;74.70;;;;;;5003828;28;20117;-80
2023/06/29 12:02:16;;;;;;;4.32;1.83;;;26.20;74.40;;;;;;5000690;28;20026;-80
2023/06/29 12:04:58;;;;;;;3.38;1.40;;;26.30;74.20;;;;;;5010602;28;20041;-81
2023/06/29 12:07:44;;;;;;;4.32;1.58;;;26.40;72.90;;;;;;5018523;28;20028;-80
2023/06/29 12:10:13;;;;;;;4.10;1.60;;;26.50;72.60;;;;;;5001708;28;20045;-80
2023/06/29 12:12:43;;;;;;;3.97;1.75;;;26.60;72.20;;;;;;5000297;28;20034;-80
2023/06/29 12:15:13;;;;;;;5.63;1.77;;;26.70;71.40;;;;;;4998049;28;20029;-81
2023/06/29 12:17:39;;;;;;;5.25;1.70;;;26.90;70.60;;;;;;5028212;28;20120;-80
2023/06/29 12:20:15;;;;;;;3.53;1.50;;;27.10;70.00;;;;;;5000540;28;20371;-80
2023/06/29 12:22:45;;;;;;;2.88;1.83;;;27.30;69.20;;;;;;4998207;28;20391;-80
2023/06/29 12:25:12;;;;;;;3.00;1.50;;;27.40;68.40;;;;;;5012669;28;20045;-80
2023/06/29 12:27:43;;;;;;;3.78;1.27;;;27.50;67.90;;;;;;5013984;28;20022;-78
2023/06/29 12:30:14;;;;;;;3.05;1.33;;;27.60;66.70;;;;;;5004450;28;20029;-81
2023/06/29 12:32:50;;;;;;;2.28;1.30;;;27.80;66.00;;;;;;5003448;28;20117;-80
2023/06/29 12:35:17;;;;;;;3.25;1.48;;;27.90;66.00;;;;;;4994288;28;20038;-81
2023/06/29 12:37:43;;;;;;;2.67;1.52;;;28.00;66.00;;;;;;5012127;28;20095;-79
2023/06/29 12:40:09;;;;;;;2.67;1.40;;;28.00;65.80;;;;;;5011784;28;20459;-84
2023/06/29 12:42:36;;;;;;;2.75;1.80;;;28.00;65.30;;;;;;5019117;28;20018;-81
2023/06/29 12:45:04;;;;;;;1.75;1.20;;;27.90;64.80;;;;;;5008201;28;20065;-80
2023/06/29 12:47:30;;;;;;;1.55;1.30;;;28.00;65.10;;;;;;4999355;28;20120;-80